Time;durP1;ratioP1;P1;durP2;ratioP2;P2;SDS_P1;SDS_P2;PMS_P1;PMS_P2;Temp;Humidity;BMP_temperature;BMP_pressure;BME280_temperature;BME280_humidity;BME280_pressure;Samples;Min_cycle;Max_cycle;Signal;HPM_P1;HPM_P2
2023/11/19 00:00:44;;;;;;;9.60;7.10;;;;;;;0.58;100.00;96927.11;109956;1273;138800;-88
2023/11/19 00:03:29;;;;;;;8.50;6.40;;;;;;;0.55;100.00;96912.47;109602;1278;24371;-88
2023/11/19 00:05:56;;;;;;;9.60;6.90;;;;;;;0.55;100.00;96911.14;107233;1278;138166;-87
2023/11/19 00:08:22;;;;;;;8.80;6.70;;;;;;;0.53;100.00;96912.46;107371;1274;24223;-87
2023/11/19 00:10:48;;;;;;;8.30;5.80;;;;;;;0.51;100.00;96915.71;107413;1270;22574;-87
2023/11/19 00:13:14;;;;;;;7.10;5.70;;;;;;;0.48;100.00;96918.92;107156;1277;138587;-88
2023/11/19 00:15:40;;;;;;;8.30;6.00;;;;;;;0.46;100.00;96916.16;107154;1278;24353;-87
2023/11/19 00:18:06;;;;;;;8.00;6.10;;;;;;;0.44;100.00;96913.73;107172;1270;138109;-87
2023/11/19 00:20:32;;;;;;;6.10;5.50;;;;;;;0.43;100.00;96906.03;107270;1254;22590;-87
2023/11/19 00:22:58;;;;;;;7.20;5.30;;;;;;;0.41;100.00;96903.75;107087;1276;24228;-87
2023/11/19 00:25:24;;;;;;;6.10;5.50;;;;;;;0.40;100.00;96900.65;107126;1276;138841;-87
2023/11/19 00:27:51;;;;;;;7.70;6.20;;;;;;;0.36;100.00;96900.40;107225;1273;23283;-87
2023/11/19 00:30:17;;;;;;;7.40;5.90;;;;;;;0.35;100.00;96893.11;107096;1278;138538;-88
2023/11/19 00:32:43;;;;;;;7.20;6.10;;;;;;;0.35;100.00;96888.02;107191;1273;22645;-86
2023/11/19 00:35:14;;;;;;;9.10;7.10;;;;;;;0.31;100.00;96888.41;107196;1278;22538;-87
2023/11/19 00:37:40;;;;;;;8.50;6.30;;;;;;;0.28;100.00;96891.04;107011;1277;138039;-88
2023/11/19 00:40:06;;;;;;;8.90;6.60;;;;;;;0.25;100.00;96897.36;107370;1269;22623;-87
2023/11/19 00:42:32;;;;;;;8.80;7.20;;;;;;;0.26;100.00;96894.23;107334;1270;138100;-87
2023/11/19 00:44:58;;;;;;;9.10;6.50;;;;;;;0.26;100.00;96888.75;107165;1278;22553;-87
2023/11/19 00:47:25;;;;;;;6.80;6.00;;;;;;;0.26;100.00;96885.41;107193;1254;22530;-87
2023/11/19 00:49:51;;;;;;;8.00;6.20;;;;;;;0.23;100.00;96886.64;107041;1277;138452;-88
2023/11/19 00:52:17;;;;;;;8.70;6.40;;;;;;;0.19;100.00;96889.09;107231;1275;22555;-88
2023/11/19 00:54:43;;;;;;;8.60;6.70;;;;;;;0.17;100.00;96890.98;107086;1278;138737;-88
2023/11/19 00:57:09;;;;;;;7.60;5.80;;;;;;;0.16;100.00;96889.98;107358;1278;22783;-87
2023/11/19 00:59:35;;;;;;;8.60;6.20;;;;;;;0.16;100.00;96883.02;107188;1270;24428;-87
2023/11/19 01:02:03;;;;;;;6.90;5.90;;;;;;;0.15;100.00;96879.86;107115;1274;137836;-87
2023/11/19 01:04:30;;;;;;;7.40;5.90;;;;;;;0.13;100.00;96875.69;107204;1272;25618;-87
2023/11/19 01:06:56;;;;;;;8.40;6.60;;;;;;;0.11;100.00;96876.19;107138;1273;138578;-87
2023/11/19 01:09:22;;;;;;;9.00;6.30;;;;;;;0.09;100.00;96877.84;107098;1278;22597;-87
2023/11/19 01:11:48;;;;;;;7.90;5.60;;;;;;;0.10;100.00;96875.90;107176;1270;138200;-87
2023/11/19 01:14:14;;;;;;;9.60;6.20;;;;;;;0.11;100.00;96876.56;107231;1273;23158;-87
2023/11/19 01:16:40;;;;;;;7.20;5.80;;;;;;;0.10;100.00;96883.58;107346;1272;25118;-87
2023/11/19 01:19:07;;;;;;;8.20;6.10;;;;;;;0.11;100.00;96887.83;106949;1272;138399;-87
2023/11/19 01:21:33;;;;;;;10.00;7.30;;;;;;;0.12;100.00;96890.92;107193;1274;22628;-87
2023/11/19 01:23:59;;;;;;;8.40;7.10;;;;;;;0.14;100.00;96881.92;107024;1272;138334;-86
2023/11/19 01:26:25;;;;;;;9.50;6.70;;;;;;;0.15;100.00;96877.94;107254;1278;22700;-87
2023/11/19 01:28:52;;;;;;;7.30;6.30;;;;;;;0.14;100.00;96871.55;107249;1278;25405;-87
2023/11/19 01:31:18;;;;;;;8.90;7.20;;;;;;;0.14;100.00;96870.38;107081;1277;138126;-86
2023/11/19 01:33:46;;;;;;;11.20;6.90;;;;;;;0.14;100.00;96878.34;107217;1270;25391;-86
2023/11/19 01:36:15;;;;;;;8.70;6.60;;;;;;;0.13;100.00;96877.56;110210;1272;139012;-87
2023/11/19 01:38:41;;;;;;;7.80;6.40;;;;;;;0.12;100.00;96861.86;110241;1278;22366;-87
2023/11/19 01:41:08;;;;;;;9.30;6.90;;;;;;;0.12;100.00;96842.60;110271;1270;22379;-87
2023/11/19 01:43:37;;;;;;;12.20;8.60;;;;;;;0.13;100.00;96828.72;110146;1270;138691;-87
2023/11/19 01:46:04;;;;;;;14.30;10.40;;;;;;;0.11;100.00;96832.05;110239;1270;22338;-87
2023/11/19 01:48:32;;;;;;;15.30;9.30;;;;;;;0.10;100.00;96837.30;110150;1270;138792;-87
2023/11/19 01:50:58;;;;;;;18.10;12.00;;;;;;;0.09;100.00;96834.25;110190;1272;22427;-87
2023/11/19 01:53:24;;;;;;;16.10;10.40;;;;;;;0.11;100.00;96828.49;110246;1272;22279;-87
2023/11/19 01:55:50;;;;;;;18.20;11.70;;;;;;;0.11;100.00;96813.00;109979;1270;139054;-86
2023/11/19 01:58:16;;;;;;;16.60;11.10;;;;;;;0.13;100.00;96796.35;110065;1270;22227;-87
2023/11/19 02:00:44;;;;;;;16.90;11.40;;;;;;;0.15;100.00;96787.50;110129;1270;139498;-87
2023/11/19 02:03:10;;;;;;;16.50;11.90;;;;;;;0.15;100.00;96790.20;110066;1273;22483;-87
2023/11/19 02:05:36;;;;;;;15.80;11.30;;;;;;;0.16;100.00;96787.94;110049;1272;22448;-87
2023/11/19 02:08:03;;;;;;;18.00;11.90;;;;;;;0.19;100.00;96790.65;110003;1277;139060;-87
2023/11/19 02:10:29;;;;;;;16.20;10.30;;;;;;;0.19;100.00;96786.42;110245;1270;22301;-87
2023/11/19 02:12:55;;;;;;;15.10;11.00;;;;;;;0.17;100.00;96782.10;110070;1264;138613;-87
2023/11/19 02:15:24;;;;;;;16.90;9.90;;;;;;;0.17;100.00;96765.39;110068;1270;24356;-88
2023/11/19 02:17:50;;;;;;;17.30;11.60;;;;;;;0.17;100.00;96750.61;109961;1273;139018;-87
2023/11/19 02:20:19;;;;;;;13.90;10.20;;;;;;;0.17;100.00;96752.61;110037;1270;22359;-87
2023/11/19 02:22:47;;;;;;;15.60;10.10;;;;;;;0.17;100.00;96749.23;110191;1270;23140;-88
2023/11/19 02:25:32;;;;;;;16.10;10.80;;;;;;;0.16;100.00;96731.89;108684;1273;139841;-87
2023/11/19 02:28:02;;;;;;;15.70;10.30;;;;;;;0.17;100.00;96725.17;110253;1270;22922;-87
2023/11/19 02:30:28;;;;;;;14.40;10.30;;;;;;;0.17;100.00;96714.15;110099;1272;139327;-87
2023/11/19 02:32:57;;;;;;;15.20;9.20;;;;;;;0.17;100.00;96706.77;110261;1269;22961;-88
2023/11/19 02:35:24;;;;;;;14.30;9.50;;;;;;;0.16;100.00;96703.63;108781;1266;22991;-86
2023/11/19 02:37:50;;;;;;;13.60;9.20;;;;;;;0.16;100.00;96702.07;107064;1273;138296;-87
2023/11/19 02:40:17;;;;;;;15.80;10.60;;;;;;;0.17;100.00;96700.15;107317;1273;25400;-86
2023/11/19 02:42:43;;;;;;;13.40;8.90;;;;;;;0.16;100.00;96701.41;107252;1270;138858;-87
2023/11/19 02:45:13;;;;;;;12.70;8.90;;;;;;;0.13;100.00;96693.77;107068;1270;24252;-87
2023/11/19 02:47:44;;;;;;;14.40;10.10;;;;;;;0.09;100.00;96686.61;107152;1275;22661;-87
2023/11/19 02:50:14;;;;;;;13.70;9.20;;;;;;;0.05;100.00;96683.81;107358;1270;22565;-87
2023/11/19 02:52:44;;;;;;;13.60;9.70;;;;;;;0.02;100.00;96669.76;107321;1270;25304;-87
2023/11/19 02:55:12;;;;;;;13.00;10.00;;;;;;;0.02;100.00;96657.79;107119;1270;138573;-87
2023/11/19 02:57:46;;;;;;;12.70;8.70;;;;;;;0.02;100.00;96649.45;107101;1272;24229;-87
2023/11/19 03:00:23;;;;;;;11.90;8.90;;;;;;;-0.01;100.00;96647.13;107201;1271;138312;-87
2023/11/19 03:02:58;;;;;;;13.80;8.50;;;;;;;-0.04;100.00;96653.59;107268;1270;22608;-87
2023/11/19 03:05:25;;;;;;;15.60;9.40;;;;;;;-0.07;100.00;96663.36;107193;1272;25097;-87
2023/11/19 03:07:51;;;;;;;12.30;8.80;;;;;;;-0.08;100.00;96655.92;107160;1272;138258;-87
2023/11/19 03:10:18;;;;;;;10.40;7.90;;;;;;;-0.09;100.00;96642.60;107249;1270;24196;-87
2023/11/19 03:12:45;;;;;;;11.80;8.10;;;;;;;-0.15;100.00;96629.04;107208;1272;138260;-88
2023/11/19 03:15:11;;;;;;;12.20;8.90;;;;;;;-0.21;100.00;96636.77;107283;1274;22541;-88
2023/11/19 03:17:42;;;;;;;12.30;8.20;;;;;;;-0.25;100.00;96641.52;107094;1273;22541;-87
2023/11/19 03:20:11;;;;;;;14.80;10.50;;;;;;;-0.28;100.00;96645.62;107297;1270;138997;-87
2023/11/19 03:22:37;;;;;;;14.10;9.90;;;;;;;-0.29;100.00;96648.80;110245;1270;23215;-87
2023/11/19 03:25:04;;;;;;;13.10;8.70;;;;;;;-0.31;100.00;96636.81;108934;1270;138943;-87
2023/11/19 03:27:30;;;;;;;12.60;8.70;;;;;;;-0.33;100.00;96627.06;107262;1267;22601;-87
2023/11/19 03:29:56;;;;;;;14.10;9.40;;;;;;;-0.34;100.00;96613.89;106978;1276;139158;-87
2023/11/19 03:32:22;;;;;;;13.60;8.70;;;;;;;-0.35;100.00;96606.59;107266;1270;26401;-87
2023/11/19 03:34:48;;;;;;;12.80;8.30;;;;;;;-0.36;100.00;96596.10;107271;1272;23882;-87
2023/11/19 03:37:17;;;;;;;11.70;8.20;;;;;;;-0.37;100.00;96601.78;106986;1272;139005;-87
2023/11/19 03:39:43;;;;;;;12.30;8.20;;;;;;;-0.36;100.00;96610.10;107258;1266;24429;-88
2023/11/19 03:42:09;;;;;;;11.80;8.20;;;;;;;-0.37;100.00;96603.20;107117;1270;142396;-87
2023/11/19 03:44:35;;;;;;;10.70;8.30;;;;;;;-0.35;100.00;96587.05;107260;1270;24239;-87
2023/11/19 03:47:01;;;;;;;11.60;7.50;;;;;;;-0.37;100.00;96578.18;107210;1270;147586;-87
2023/11/19 03:49:27;;;;;;;11.00;7.90;;;;;;;-0.44;100.00;96585.13;107193;1272;138502;-87
2023/11/19 03:51:53;;;;;;;11.00;7.80;;;;;;;-0.46;100.00;96595.02;107110;1270;22653;-88
2023/11/19 03:54:21;;;;;;;10.40;7.40;;;;;;;-0.47;100.00;96591.50;107021;1272;138994;-87
2023/11/19 03:56:47;;;;;;;9.60;7.00;;;;;;;-0.48;100.00;96576.44;107344;1272;23424;-88
2023/11/19 03:59:15;;;;;;;10.20;8.00;;;;;;;-0.46;100.00;96569.84;107057;1273;22553;-88
2023/11/19 04:01:41;;;;;;;10.70;7.50;;;;;;;-0.44;100.00;96566.08;109221;1273;138735;-89
2023/11/19 04:04:07;;;;;;;11.90;7.10;;;;;;;-0.44;100.00;96571.17;107258;1275;25727;-88
2023/11/19 04:06:33;;;;;;;8.80;6.90;;;;;;;-0.43;100.00;96560.55;107246;1259;138356;-88
2023/11/19 04:08:59;;;;;;;10.80;6.40;;;;;;;-0.42;100.00;96545.56;107307;1269;23446;-88
2023/11/19 04:11:25;;;;;;;8.10;6.80;;;;;;;-0.47;100.00;96538.40;107426;1270;25398;-88
2023/11/19 04:13:52;;;;;;;7.30;6.40;;;;;;;-0.50;100.00;96533.83;107185;1272;138741;-88
2023/11/19 04:16:18;;;;;;;7.30;5.80;;;;;;;-0.52;100.00;96532.09;107355;1270;22552;-88
2023/11/19 04:18:44;;;;;;;7.00;5.50;;;;;;;-0.56;100.00;96525.75;107188;1269;138539;-87
2023/11/19 04:21:11;;;;;;;8.10;5.90;;;;;;;-0.61;100.00;96524.56;107366;1270;25468;-88
2023/11/19 04:23:37;;;;;;;8.80;6.80;;;;;;;-0.60;100.00;96528.45;107132;1272;22595;-86
2023/11/19 04:26:04;;;;;;;9.20;6.60;;;;;;;-0.58;100.00;96532.73;107285;1269;138797;-86
2023/11/19 04:28:30;;;;;;;9.60;6.80;;;;;;;-0.54;100.00;96542.94;107302;1266;25277;-86
2023/11/19 04:30:56;;;;;;;8.90;6.40;;;;;;;-0.48;100.00;96547.85;107270;1269;138243;-87
2023/11/19 04:33:22;;;;;;;7.60;5.90;;;;;;;-0.46;100.00;96548.87;107389;1270;24377;-88
2023/11/19 04:35:49;;;;;;;9.10;6.70;;;;;;;-0.46;100.00;96547.17;107205;1271;138820;-87
2023/11/19 04:38:15;;;;;;;6.90;5.60;;;;;;;-0.50;100.00;96540.97;107299;1276;22660;-87
2023/11/19 04:40:41;;;;;;;10.00;7.30;;;;;;;-0.52;100.00;96531.06;107317;1270;25496;-87
2023/11/19 04:43:07;;;;;;;9.50;7.40;;;;;;;-0.54;100.00;96519.49;107126;1271;138510;-88
2023/11/19 04:45:34;;;;;;;13.40;8.20;;;;;;;-0.53;100.00;96517.89;107336;1274;24228;-87
2023/11/19 04:48:00;;;;;;;30.10;14.50;;;;;;;-0.52;100.00;96520.35;107246;1270;138958;-88
2023/11/19 04:50:27;;;;;;;26.20;12.60;;;;;;;-0.50;100.00;96524.81;107186;1270;22533;-88
2023/11/19 04:52:53;;;;;;;18.70;10.30;;;;;;;-0.48;100.00;96520.82;107310;1270;22569;-87
2023/11/19 04:55:19;;;;;;;19.00;9.60;;;;;;;-0.50;100.00;96517.17;107311;1269;138618;-87
2023/11/19 04:57:45;;;;;;;15.90;9.20;;;;;;;-0.49;100.00;96508.10;107326;1270;25319;-87
2023/11/19 05:00:12;;;;;;;14.00;9.00;;;;;;;-0.50;100.00;96504.05;107346;1269;138495;-87
2023/11/19 05:02:38;;;;;;;12.40;7.10;;;;;;;-0.51;100.00;96504.27;107339;1270;22785;-87
2023/11/19 05:05:04;;;;;;;8.60;6.50;;;;;;;-0.53;100.00;96503.77;107395;1266;23123;-87
2023/11/19 05:07:30;;;;;;;7.40;5.40;;;;;;;-0.55;100.00;96502.52;107269;1269;138972;-87
2023/11/19 05:09:56;;;;;;;5.50;4.60;;;;;;;-0.56;100.00;96502.79;107316;1272;24377;-87
2023/11/19 05:12:23;;;;;;;7.40;5.30;;;;;;;-0.61;100.00;96503.84;107287;1263;138352;-87
2023/11/19 05:14:50;;;;;;;7.00;5.00;;;;;;;-0.62;100.00;96501.70;107318;1270;25490;-87
2023/11/19 05:17:18;;;;;;;6.90;5.40;;;;;;;-0.62;100.00;96496.75;107475;1269;25445;-87
2023/11/19 05:19:44;;;;;;;5.90;4.80;;;;;;;-0.60;100.00;96495.27;107261;1269;138795;-88
2023/11/19 05:22:10;;;;;;;7.10;4.90;;;;;;;-0.59;100.00;96492.31;107433;1269;22948;-87
2023/11/19 05:24:36;;;;;;;6.00;4.40;;;;;;;-0.56;100.00;96486.84;107076;1272;139122;-87
2023/11/19 05:27:03;;;;;;;5.90;4.60;;;;;;;-0.57;100.00;96478.88;107177;1272;23176;-87
2023/11/19 05:29:29;;;;;;;5.60;4.40;;;;;;;-0.62;100.00;96478.23;107235;1272;22586;-88
2023/11/19 05:31:55;;;;;;;6.10;4.80;;;;;;;-0.64;100.00;96478.17;107210;1276;138264;-88
2023/11/19 05:34:21;;;;;;;4.20;3.70;;;;;;;-0.65;100.00;96472.30;107303;1270;22530;-88
2023/11/19 05:36:47;;;;;;;4.70;3.80;;;;;;;-0.68;100.00;96471.48;107061;1275;138273;-87
2023/11/19 05:39:13;;;;;;;4.60;3.70;;;;;;;-0.67;100.00;96471.92;107326;1269;24252;-88
2023/11/19 05:41:39;;;;;;;4.70;3.60;;;;;;;-0.62;100.00;96474.63;107145;1274;23328;-88
2023/11/19 05:44:06;;;;;;;3.90;3.30;;;;;;;-0.57;100.00;96475.19;106995;1270;138472;-87
2023/11/19 05:46:32;;;;;;;4.10;3.60;;;;;;;-0.55;100.00;96480.42;107247;1276;24332;-88
2023/11/19 05:48:58;;;;;;;4.00;3.60;;;;;;;-0.52;100.00;96469.99;107305;1270;138154;-88
2023/11/19 05:51:24;;;;;;;5.10;3.60;;;;;;;-0.51;100.00;96465.48;107312;1270;22483;-87
2023/11/19 05:53:50;;;;;;;4.30;3.90;;;;;;;-0.49;100.00;96460.26;107248;1269;139725;-87
2023/11/19 05:56:21;;;;;;;4.00;3.60;;;;;;;-0.46;100.00;96451.69;107346;1273;25459;-88
2023/11/19 05:58:48;;;;;;;5.10;3.70;;;;;;;-0.42;100.00;96452.59;107330;1269;25514;-87
2023/11/19 06:01:14;;;;;;;112.90;40.00;;;;;;;-0.40;100.00;96456.33;107195;1270;138396;-88
2023/11/19 06:03:39;;;;;;;176.40;59.80;;;;;;;-0.36;100.00;96462.67;107362;1270;24218;-87
2023/11/19 06:06:06;;;;;;;166.80;52.90;;;;;;;-0.32;100.00;96474.00;107246;1269;138920;-87
2023/11/19 06:08:32;;;;;;;132.20;46.00;;;;;;;-0.29;100.00;96482.61;107295;1271;24816;-88
2023/11/19 06:10:58;;;;;;;36.00;15.30;;;;;;;-0.27;100.00;96474.19;107365;1269;23479;-87
2023/11/19 06:13:25;;;;;;;16.20;9.40;;;;;;;-0.27;100.00;96462.02;107255;1256;139992;-88
2023/11/19 06:15:51;;;;;;;8.70;4.80;;;;;;;-0.25;100.00;96456.76;107371;1271;22545;-88
2023/11/19 06:18:19;;;;;;;7.30;4.30;;;;;;;-0.20;100.00;96461.38;107257;1272;138979;-88
2023/11/19 06:20:45;;;;;;;5.50;4.50;;;;;;;-0.16;100.00;96462.79;107315;1269;25106;-87
2023/11/19 06:23:11;;;;;;;6.50;5.00;;;;;;;-0.13;100.00;96461.36;107321;1269;22591;-88
2023/11/19 06:25:38;;;;;;;5.10;4.30;;;;;;;-0.11;100.00;96455.53;107157;1270;138186;-88
2023/11/19 06:28:04;;;;;;;5.30;4.40;;;;;;;-0.07;100.00;96445.20;107327;1269;26730;-87
2023/11/19 06:30:32;;;;;;;4.30;3.80;;;;;;;-0.03;100.00;96432.48;107255;1266;138800;-87
2023/11/19 06:32:58;;;;;;;5.20;4.10;;;;;;;0.00;100.00;96429.02;107166;1272;22553;-88
2023/11/19 06:35:24;;;;;;;6.70;4.60;;;;;;;0.04;100.00;96416.99;107361;1272;25393;-87
2023/11/19 06:37:50;;;;;;;11.60;6.50;;;;;;;0.09;100.00;96411.52;107178;1270;138108;-87
2023/11/19 06:40:16;;;;;;;4.50;3.70;;;;;;;0.13;100.00;96400.30;107256;1272;22599;-87
2023/11/19 06:42:42;;;;;;;3.70;3.20;;;;;;;0.17;100.00;96393.19;107178;1262;139582;-86
2023/11/19 06:45:09;;;;;;;4.90;3.40;;;;;;;0.20;100.00;96395.51;107291;1275;22533;-88
2023/11/19 06:47:35;;;;;;;4.30;3.40;;;;;;;0.23;100.00;96390.64;107278;1272;23304;-87
2023/11/19 06:50:04;;;;;;;4.50;4.10;;;;;;;0.26;100.00;96389.36;107149;1254;137867;-88
2023/11/19 06:52:30;;;;;;;4.50;3.50;;;;;;;0.28;100.00;96378.98;107359;1269;25337;-88
2023/11/19 06:54:56;;;;;;;5.40;4.10;;;;;;;0.33;100.00;96369.95;107246;1269;138258;-87
2023/11/19 06:57:23;;;;;;;3.60;2.80;;;;;;;0.36;100.00;96369.35;107335;1272;25515;-87
2023/11/19 06:59:49;;;;;;;3.20;2.90;;;;;;;0.40;100.00;96376.59;107301;1269;138277;-87
2023/11/19 07:02:15;;;;;;;4.30;3.60;;;;;;;0.43;100.00;96376.17;107345;1270;22557;-88
2023/11/19 07:04:42;;;;;;;4.10;3.30;;;;;;;0.46;100.00;96377.45;107353;1270;22548;-87
2023/11/19 07:07:08;;;;;;;4.50;3.30;;;;;;;0.48;100.00;96375.23;107228;1272;139532;-87
2023/11/19 07:09:33;;;;;;;4.00;3.20;;;;;;;0.50;100.00;96372.86;107261;1270;22749;-88
2023/11/19 07:12:01;;;;;;;4.10;3.50;;;;;;;0.54;100.00;96376.16;107192;1270;138541;-88
2023/11/19 07:14:28;;;;;;;4.40;3.60;;;;;;;0.57;100.00;96381.90;107320;1271;25459;-87
2023/11/19 07:16:55;;;;;;;3.70;3.40;;;;;;;0.59;100.00;96377.91;107156;1270;23107;-88
2023/11/19 07:19:21;;;;;;;5.30;3.80;;;;;;;0.61;100.00;96352.73;107079;1272;139088;-87
2023/11/19 07:21:48;;;;;;;4.30;3.50;;;;;;;0.64;100.00;96354.39;107085;1275;22537;-88
2023/11/19 07:24:13;;;;;;;4.30;3.50;;;;;;;0.67;100.00;96359.82;107248;1272;138202;-87
2023/11/19 07:26:43;;;;;;;6.40;3.60;;;;;;;0.70;100.00;96370.31;107295;1271;24077;-87
2023/11/19 07:29:09;;;;;;;4.80;4.30;;;;;;;0.72;100.00;96384.92;107286;1272;23003;-87
2023/11/19 07:31:35;;;;;;;3.90;3.50;;;;;;;0.75;100.00;96390.38;107330;1272;138625;-86
2023/11/19 07:34:01;;;;;;;4.30;3.40;;;;;;;0.77;100.00;96390.80;107260;1272;22647;-87
2023/11/19 07:36:27;;;;;;;4.10;3.70;;;;;;;0.80;100.00;96394.56;107257;1275;138164;-87
2023/11/19 07:38:53;;;;;;;4.90;3.80;;;;;;;0.83;100.00;96391.11;107463;1278;24068;-87
2023/11/19 07:41:19;;;;;;;5.60;3.80;;;;;;;0.87;100.00;96387.19;107292;1255;22544;-87
2023/11/19 07:43:50;;;;;;;6.20;4.10;;;;;;;0.90;100.00;96384.73;107148;1272;138204;-87
2023/11/19 07:46:16;;;;;;;4.70;3.60;;;;;;;0.92;100.00;96363.77;107385;1277;22571;-87
2023/11/19 07:48:42;;;;;;;5.40;4.00;;;;;;;0.93;100.00;96356.01;107194;1270;138536;-88
2023/11/19 07:51:11;;;;;;;5.80;4.80;;;;;;;0.96;100.00;96347.41;107276;1275;25438;-87
2023/11/19 07:53:38;;;;;;;4.80;4.20;;;;;;;0.99;100.00;96354.30;110265;1271;22424;-88
2023/11/19 07:56:05;;;;;;;4.50;3.80;;;;;;;1.03;100.00;96351.82;110190;1277;138290;-88
2023/11/19 07:58:31;;;;;;;5.80;4.30;;;;;;;1.06;100.00;96355.33;110242;1272;22173;-87
2023/11/19 08:00:57;;;;;;;4.90;4.40;;;;;;;1.08;100.00;96354.91;110198;1278;138602;-88
2023/11/19 08:03:23;;;;;;;5.50;4.30;;;;;;;1.10;100.00;96347.73;110277;1277;22342;-88
2023/11/19 08:05:49;;;;;;;4.70;3.80;;;;;;;1.14;100.00;96341.33;109959;1277;139034;-88
2023/11/19 08:08:15;;;;;;;6.70;4.80;;;;;;;1.17;100.00;96321.13;110247;1278;22208;-88
2023/11/19 08:10:41;;;;;;;8.70;6.50;;;;;;;1.49;100.00;96310.27;110273;1278;22958;-88
2023/11/19 08:13:08;;;;;;;8.50;5.60;;;;;;;2.17;100.00;96300.56;110195;1273;139349;-88
2023/11/19 08:15:34;;;;;;;5.70;4.10;;;;;;;2.76;100.00;96299.04;110246;1278;23051;-88
2023/11/19 08:18:00;;;;;;;5.20;3.80;;;;;;;2.86;100.00;96288.77;110132;1277;138757;-88
2023/11/19 08:20:26;;;;;;;4.40;3.90;;;;;;;2.76;100.00;96286.89;110278;1278;22288;-88
2023/11/19 08:22:53;;;;;;;5.10;3.50;;;;;;;2.65;100.00;96294.05;110244;1278;22415;-88
2023/11/19 08:25:18;;;;;;;4.40;3.60;;;;;;;2.53;100.00;96298.65;108683;1278;138532;-87
2023/11/19 08:27:44;;;;;;;4.70;3.70;;;;;;;2.43;100.00;96286.36;107329;1272;23323;-89
2023/11/19 08:30:11;;;;;;;5.60;4.40;;;;;;;2.33;100.00;96293.91;107122;1278;138333;-87
2023/11/19 08:32:37;;;;;;;5.60;3.90;;;;;;;2.23;100.00;96302.98;107059;1273;22572;-84
2023/11/19 08:35:04;;;;;;;9.70;6.40;;;;;;;2.15;100.00;96308.10;107371;1272;22685;-87
2023/11/19 08:37:30;;;;;;;5.30;3.90;;;;;;;2.10;100.00;96303.08;107347;1270;138673;-87
2023/11/19 08:39:56;;;;;;;4.00;3.50;;;;;;;2.05;100.00;96294.09;107334;1270;22551;-86
2023/11/19 08:42:23;;;;;;;5.00;4.10;;;;;;;2.02;100.00;96289.77;107260;1276;138406;-87
2023/11/19 08:44:50;;;;;;;7.00;4.10;;;;;;;1.99;100.00;96280.14;107377;1277;22560;-86
2023/11/19 08:47:17;;;;;;;14.50;9.20;;;;;;;1.96;100.00;96281.52;107867;1270;22695;-86
2023/11/19 08:49:44;;;;;;;6.20;4.70;;;;;;;1.94;100.00;96281.70;107640;1270;138251;-87
2023/11/19 08:52:10;;;;;;;7.90;6.10;;;;;;;1.92;100.00;96282.59;107692;1275;22744;-87
2023/11/19 08:54:36;;;;;;;4.70;3.90;;;;;;;1.91;100.00;96278.02;107805;1278;138354;-86
2023/11/19 08:57:03;;;;;;;8.10;6.00;;;;;;;1.88;100.00;96276.41;107761;1272;22658;-86
2023/11/19 08:59:30;;;;;;;5.90;4.20;;;;;;;1.87;100.00;96276.38;107250;1272;24229;-86
2023/11/19 09:01:56;;;;;;;8.30;7.30;;;;;;;1.87;100.00;96284.09;107370;1272;138790;-87
2023/11/19 09:04:22;;;;;;;7.80;6.30;;;;;;;1.86;100.00;96272.39;107384;1272;22554;-87
2023/11/19 09:06:49;;;;;;;7.90;6.60;;;;;;;1.85;100.00;96263.75;107596;1267;138567;-86
2023/11/19 09:09:15;;;;;;;8.80;5.70;;;;;;;1.83;100.00;96260.11;107753;1272;22554;-86
2023/11/19 09:11:41;;;;;;;7.30;5.80;;;;;;;1.81;100.00;96259.41;107701;1270;22557;-87
2023/11/19 09:14:07;;;;;;;8.10;5.40;;;;;;;1.82;100.00;96255.58;107581;1277;137951;-87
2023/11/19 09:16:34;;;;;;;8.00;6.30;;;;;;;1.82;100.00;96243.88;107613;1276;25459;-87
2023/11/19 09:19:00;;;;;;;7.10;5.80;;;;;;;1.81;100.00;96232.44;107306;1272;138943;-87
2023/11/19 09:21:26;;;;;;;7.30;5.50;;;;;;;1.82;100.00;96225.94;107466;1275;25427;-87
2023/11/19 09:23:53;;;;;;;9.00;5.90;;;;;;;1.81;100.00;96230.23;107232;1278;139918;-86
2023/11/19 09:26:19;;;;;;;7.10;5.60;;;;;;;1.83;100.00;96225.51;107258;1272;22547;-86
2023/11/19 09:28:46;;;;;;;8.00;5.50;;;;;;;1.84;100.00;96217.37;107215;1272;22600;-86
2023/11/19 09:31:18;;;;;;;7.60;4.90;;;;;;;1.86;100.00;96208.48;107201;1272;139319;-87
2023/11/19 09:33:44;;;;;;;9.20;6.70;;;;;;;1.86;100.00;96196.65;107215;1272;22590;-86
2023/11/19 09:36:13;;;;;;;6.80;5.10;;;;;;;1.86;100.00;96193.90;107025;1272;139644;-86
2023/11/19 09:38:40;;;;;;;8.60;6.00;;;;;;;1.86;100.00;96192.08;110133;1269;22234;-87
2023/11/19 09:41:11;;;;;;;5.90;4.70;;;;;;;1.87;100.00;96198.33;110300;1277;22880;-87
2023/11/19 09:43:38;;;;;;;7.40;5.80;;;;;;;1.88;100.00;96195.69;110164;1272;138887;-87
2023/11/19 09:46:10;;;;;;;6.60;5.10;;;;;;;1.89;100.00;96191.31;110061;1278;22296;-87
2023/11/19 09:48:40;;;;;;;5.40;4.50;;;;;;;1.93;100.00;96175.23;108005;1272;138293;-87
2023/11/19 09:51:07;;;;;;;6.80;4.20;;;;;;;1.97;100.00;96167.66;107088;1276;22745;-87
2023/11/19 09:53:34;;;;;;;5.10;4.30;;;;;;;2.03;100.00;96154.98;107208;1272;25381;-86
2023/11/19 09:56:00;;;;;;;5.30;3.90;;;;;;;2.08;100.00;96154.23;110136;1272;138840;-87
2023/11/19 09:58:26;;;;;;;4.80;3.80;;;;;;;2.14;100.00;96161.91;110224;1276;22414;-87
2023/11/19 10:00:52;;;;;;;5.50;4.30;;;;;;;2.20;100.00;96162.91;110120;1275;139208;-87
2023/11/19 10:03:18;;;;;;;5.60;3.70;;;;;;;2.27;100.00;96155.42;110206;1271;22340;-87
2023/11/19 10:05:45;;;;;;;6.00;4.50;;;;;;;2.34;100.00;96145.95;110224;1278;22368;-87
2023/11/19 10:08:11;;;;;;;5.70;4.30;;;;;;;2.42;100.00;96139.89;110188;1269;22186;-87
2023/11/19 10:10:37;;;;;;;5.60;4.40;;;;;;;2.48;100.00;96134.46;110350;1269;23302;-87
2023/11/19 10:13:03;;;;;;;5.80;4.20;;;;;;;2.53;100.00;96127.86;110234;1275;138612;-87
2023/11/19 10:15:31;;;;;;;7.00;4.40;;;;;;;2.58;100.00;96118.83;107769;1272;22560;-87
2023/11/19 10:17:57;;;;;;;5.00;4.00;;;;;;;2.62;100.00;96109.09;110220;1270;140427;-87
2023/11/19 10:20:23;;;;;;;6.10;4.10;;;;;;;2.64;100.00;96108.00;110320;1276;23057;-87
2023/11/19 10:22:54;;;;;;;6.10;4.20;;;;;;;2.66;100.00;96099.64;108005;1271;22540;-87
2023/11/19 10:25:27;;;;;;;5.70;4.30;;;;;;;2.65;100.00;96088.80;107184;1275;138131;-86
2023/11/19 10:27:54;;;;;;;5.00;4.10;;;;;;;2.62;100.00;96076.05;110197;1279;22482;-87
2023/11/19 10:30:24;;;;;;;5.80;3.80;;;;;;;2.63;100.00;96067.55;110103;1277;138789;-87
2023/11/19 10:33:10;;;;;;;5.40;3.80;;;;;;;2.67;100.00;96063.64;110247;1275;22331;-87
2023/11/19 10:35:37;;;;;;;5.00;3.90;;;;;;;2.71;100.00;96057.77;110064;1273;24107;-87
2023/11/19 10:38:15;;;;;;;4.90;4.10;;;;;;;2.74;100.00;96042.81;110130;1271;138907;-87
2023/11/19 10:40:41;;;;;;;6.20;4.00;;;;;;;2.76;100.00;96035.93;110200;1273;22200;-87
2023/11/19 10:43:08;;;;;;;4.50;4.00;;;;;;;2.76;100.00;96037.79;107962;1272;139117;-87
2023/11/19 10:45:35;;;;;;;5.90;5.00;;;;;;;2.75;100.00;96035.67;107358;1272;22550;-87
2023/11/19 10:48:02;;;;;;;6.20;4.20;;;;;;;2.73;100.00;96032.80;107110;1272;141376;-87
2023/11/19 10:50:28;;;;;;;5.00;4.10;;;;;;;2.71;100.00;96027.14;107232;1275;22636;-87
2023/11/19 10:53:00;;;;;;;5.30;3.80;;;;;;;2.72;100.00;96027.43;107343;1272;22556;-86
2023/11/19 10:55:31;;;;;;;3.10;2.70;;;;;;;2.72;100.00;96019.23;107078;1272;137992;-87
2023/11/19 10:58:07;;;;;;;5.90;3.90;;;;;;;2.71;100.00;96020.36;107223;1271;22538;-88
2023/11/19 11:00:57;;;;;;;4.80;4.00;;;;;;;2.70;100.00;96010.81;107117;1272;138016;-88
2023/11/19 11:03:24;;;;;;;5.00;3.80;;;;;;;2.70;100.00;96001.58;107225;1272;23419;-87
2023/11/19 11:05:52;;;;;;;5.90;4.50;;;;;;;2.69;100.00;96004.44;107110;1272;139054;-87
2023/11/19 11:08:19;;;;;;;6.00;3.70;;;;;;;2.67;100.00;96005.99;110306;1278;22265;-88
2023/11/19 11:10:55;;;;;;;7.60;5.00;;;;;;;2.65;100.00;96006.50;110164;1278;22386;-88
2023/11/19 11:13:27;;;;;;;8.50;6.90;;;;;;;2.63;100.00;96004.61;110074;1278;138704;-88
2023/11/19 11:15:54;;;;;;;12.80;8.00;;;;;;;2.63;100.00;96000.56;110120;1273;22179;-88